sensor_id;sensor_type;location;lat;lon;timestamp;P1;P2;P0
34176;PMS7003;20450;49.074;9.158;2022-07-29T00:01:08;10.75;10.75;9.00
34176;PMS7003;20450;49.074;9.158;2022-07-29T00:03:45;10.50;10.50;9.00
34176;PMS7003;20450;49.074;9.158;2022-07-29T00:06:15;11.00;10.25;9.00
34176;PMS7003;20450;49.074;9.158;2022-07-29T00:08:43;12.00;12.00;8.75
34176;PMS7003;20450;49.074;9.158;2022-07-29T00:11:14;11.25;11.00;9.00
34176;PMS7003;20450;49.074;9.158;2022-07-29T00:13:44;12.25;12.25;10.75
34176;PMS7003;20450;49.074;9.158;2022-07-29T00:16:26;12.50;11.75;11.00
34176;PMS7003;20450;49.074;9.158;2022-07-29T00:18:58;13.25;13.25;11.25
34176;PMS7003;20450;49.074;9.158;2022-07-29T00:21:30;14.75;12.50;10.25
34176;PMS7003;20450;49.074;9.158;2022-07-29T00:23:58;13.00;12.25;9.25
34176;PMS7003;20450;49.074;9.158;2022-07-29T00:26:25;12.00;12.00;10.75
34176;PMS7003;20450;49.074;9.158;2022-07-29T00:28:53;13.25;13.25;11.00
34176;PMS7003;20450;49.074;9.158;2022-07-29T00:31:44;12.25;10.75;9.75
34176;PMS7003;20450;49.074;9.158;2022-07-29T00:34:15;12.25;11.50;10.00
34176;PMS7003;20450;49.074;9.158;2022-07-29T00:36:44;11.75;11.75;9.75
34176;PMS7003;20450;49.074;9.158;2022-07-29T00:39:11;12.25;12.25;10.25
34176;PMS7003;20450;49.074;9.158;2022-07-29T00:41:39;12.00;12.00;10.00
34176;PMS7003;20450;49.074;9.158;2022-07-29T00:44:06;12.50;11.50;10.00
34176;PMS7003;20450;49.074;9.158;2022-07-29T00:46:34;13.50;11.75;9.25
34176;PMS7003;20450;49.074;9.158;2022-07-29T00:49:01;12.50;12.50;9.25
34176;PMS7003;20450;49.074;9.158;2022-07-29T00:51:29;10.50;10.00;9.00
34176;PMS7003;20450;49.074;9.158;2022-07-29T00:54:02;10.40;10.40;8.60
34176;PMS7003;20450;49.074;9.158;2022-07-29T00:56:32;12.40;10.60;9.00
34176;PMS7003;20450;49.074;9.158;2022-07-29T00:59:00;13.00;12.00;9.75
34176;PMS7003;20450;49.074;9.158;2022-07-29T01:01:27;10.50;10.50;9.00
34176;PMS7003;20450;49.074;9.158;2022-07-29T01:03:56;13.25;11.50;9.00
34176;PMS7003;20450;49.074;9.158;2022-07-29T01:06:23;11.25;11.25;9.25
34176;PMS7003;20450;49.074;9.158;2022-07-29T01:08:52;14.00;12.50;10.75
34176;PMS7003;20450;49.074;9.158;2022-07-29T01:11:21;13.00;13.00;10.50
34176;PMS7003;20450;49.074;9.158;2022-07-29T01:13:49;12.25;12.00;10.25
34176;PMS7003;20450;49.074;9.158;2022-07-29T01:16:21;11.25;11.25;9.75
34176;PMS7003;20450;49.074;9.158;2022-07-29T01:18:59;16.25;14.25;11.25
34176;PMS7003;20450;49.074;9.158;2022-07-29T01:21:50;9.00;7.75;7.50
34176;PMS7003;20450;49.074;9.158;2022-07-29T01:24:33;11.50;11.50;10.25
34176;PMS7003;20450;49.074;9.158;2022-07-29T01:27:25;14.00;12.75;10.50
34176;PMS7003;20450;49.074;9.158;2022-07-29T01:30:12;12.25;12.25;11.25
34176;PMS7003;20450;49.074;9.158;2022-07-29T01:32:41;15.75;13.25;9.50
34176;PMS7003;20450;49.074;9.158;2022-07-29T01:35:17;13.75;13.75;10.75
34176;PMS7003;20450;49.074;9.158;2022-07-29T01:37:52;14.00;13.75;11.75
34176;PMS7003;20450;49.074;9.158;2022-07-29T01:40:29;15.50;13.50;11.25
34176;PMS7003;20450;49.074;9.158;2022-07-29T01:43:05;10.75;10.75;9.00
34176;PMS7003;20450;49.074;9.158;2022-07-29T01:45:46;12.00;12.00;10.25
34176;PMS7003;20450;49.074;9.158;2022-07-29T01:48:23;12.25;10.00;8.00
34176;PMS7003;20450;49.074;9.158;2022-07-29T01:50:58;14.50;13.50;11.25
34176;PMS7003;20450;49.074;9.158;2022-07-29T01:53:34;10.50;10.50;8.00
34176;PMS7003;20450;49.074;9.158;2022-07-29T01:56:16;12.75;11.00;8.50
34176;PMS7003;20450;49.074;9.158;2022-07-29T01:58:46;10.25;10.00;8.25
34176;PMS7003;20450;49.074;9.158;2022-07-29T02:01:19;10.75;8.75;8.50
34176;PMS7003;20450;49.074;9.158;2022-07-29T02:03:52;12.25;12.00;10.50
34176;PMS7003;20450;49.074;9.158;2022-07-29T02:06:22;13.25;13.25;11.25
34176;PMS7003;20450;49.074;9.158;2022-07-29T02:08:55;10.75;10.75;9.50
34176;PMS7003;20450;49.074;9.158;2022-07-29T02:11:25;10.50;10.50;8.75
34176;PMS7003;20450;49.074;9.158;2022-07-29T02:13:52;13.25;12.50;9.50
34176;PMS7003;20450;49.074;9.158;2022-07-29T02:16:26;10.25;10.25;9.75
34176;PMS7003;20450;49.074;9.158;2022-07-29T02:18:57;13.00;12.75;10.75
34176;PMS7003;20450;49.074;9.158;2022-07-29T02:21:28;13.75;12.75;10.50
34176;PMS7003;20450;49.074;9.158;2022-07-29T02:23:59;12.50;12.50;11.00
34176;PMS7003;20450;49.074;9.158;2022-07-29T02:26:29;14.00;12.75;10.00
34176;PMS7003;20450;49.074;9.158;2022-07-29T02:29:00;12.25;11.50;10.00
34176;PMS7003;20450;49.074;9.158;2022-07-29T02:31:30;12.50;12.50;10.00
34176;PMS7003;20450;49.074;9.158;2022-07-29T02:34:02;11.50;11.00;10.25
34176;PMS7003;20450;49.074;9.158;2022-07-29T02:36:34;15.50;15.25;12.00
34176;PMS7003;20450;49.074;9.158;2022-07-29T02:39:03;16.75;15.25;11.75
34176;PMS7003;20450;49.074;9.158;2022-07-29T02:41:40;16.25;16.25;13.25
34176;PMS7003;20450;49.074;9.158;2022-07-29T02:44:12;13.25;13.25;11.25
34176;PMS7003;20450;49.074;9.158;2022-07-29T02:46:45;18.00;17.25;13.75
34176;PMS7003;20450;49.074;9.158;2022-07-29T02:49:18;16.75;16.25;12.25
34176;PMS7003;20450;49.074;9.158;2022-07-29T02:52:02;16.00;15.00;12.25
34176;PMS7003;20450;49.074;9.158;2022-07-29T02:54:37;17.00;14.75;12.00
34176;PMS7003;20450;49.074;9.158;2022-07-29T02:57:11;13.25;13.25;12.00
34176;PMS7003;20450;49.074;9.158;2022-07-29T02:59:45;14.00;13.25;11.25
34176;PMS7003;20450;49.074;9.158;2022-07-29T03:02:19;15.50;14.00;11.00
34176;PMS7003;20450;49.074;9.158;2022-07-29T03:04:48;14.25;13.25;12.00
34176;PMS7003;20450;49.074;9.158;2022-07-29T03:07:18;12.25;12.25;10.25
34176;PMS7003;20450;49.074;9.158;2022-07-29T03:09:48;11.75;11.75;9.50
34176;PMS7003;20450;49.074;9.158;2022-07-29T03:12:19;11.50;11.50;10.25
34176;PMS7003;20450;49.074;9.158;2022-07-29T03:14:46;11.25;11.25;9.50
34176;PMS7003;20450;49.074;9.158;2022-07-29T03:17:15;11.25;11.25;10.00
34176;PMS7003;20450;49.074;9.158;2022-07-29T03:19:44;12.00;12.00;10.50
34176;PMS7003;20450;49.074;9.158;2022-07-29T03:22:11;10.50;9.00;8.50
34176;PMS7003;20450;49.074;9.158;2022-07-29T03:24:38;14.00;12.25;10.25
34176;PMS7003;20450;49.074;9.158;2022-07-29T03:27:06;12.25;11.50;9.50
34176;PMS7003;20450;49.074;9.158;2022-07-29T03:29:32;11.75;11.75;11.00
34176;PMS7003;20450;49.074;9.158;2022-07-29T03:32:01;15.75;14.25;12.25
34176;PMS7003;20450;49.074;9.158;2022-07-29T03:34:34;13.50;12.75;11.50
34176;PMS7003;20450;49.074;9.158;2022-07-29T03:37:04;17.00;14.75;11.50
34176;PMS7003;20450;49.074;9.158;2022-07-29T03:39:34;17.00;15.75;13.25
34176;PMS7003;20450;49.074;9.158;2022-07-29T03:42:06;12.75;11.00;7.25
34176;PMS7003;20450;49.074;9.158;2022-07-29T03:44:38;13.50;12.25;10.25
34176;PMS7003;20450;49.074;9.158;2022-07-29T03:47:10;17.25;15.25;10.50
34176;PMS7003;20450;49.074;9.158;2022-07-29T03:49:42;14.25;12.75;10.75
34176;PMS7003;20450;49.074;9.158;2022-07-29T03:52:16;14.25;13.00;10.00
34176;PMS7003;20450;49.074;9.158;2022-07-29T03:54:44;14.00;14.00;10.75
34176;PMS7003;20450;49.074;9.158;2022-07-29T03:57:11;17.00;15.75;13.75
34176;PMS7003;20450;49.074;9.158;2022-07-29T03:59:42;14.00;14.00;11.00
34176;PMS7003;20450;49.074;9.158;2022-07-29T04:02:11;15.50;15.50;12.75
34176;PMS7003;20450;49.074;9.158;2022-07-29T04:04:42;6.00;6.00;4.00
34176;PMS7003;20450;49.074;9.158;2022-07-29T04:07:11;10.75;10.75;8.50
34176;PMS7003;20450;49.074;9.158;2022-07-29T04:09:40;12.00;12.00;9.75
34176;PMS7003;20450;49.074;9.158;2022-07-29T04:12:08;14.50;13.50;11.50
34176;PMS7003;20450;49.074;9.158;2022-07-29T04:14:35;12.25;12.25;11.00
34176;PMS7003;20450;49.074;9.158;2022-07-29T04:17:03;14.75;14.75;11.00
34176;PMS7003;20450;49.074;9.158;2022-07-29T04:19:31;13.50;13.50;12.00
34176;PMS7003;20450;49.074;9.158;2022-07-29T04:21:59;14.25;13.50;11.50
34176;PMS7003;20450;49.074;9.158;2022-07-29T04:24:27;15.00;15.00;12.50
34176;PMS7003;20450;49.074;9.158;2022-07-29T04:26:56;14.50;13.50;11.00
34176;PMS7003;20450;49.074;9.158;2022-07-29T04:29:23;15.50;12.50;10.50
34176;PMS7003;20450;49.074;9.158;2022-07-29T04:31:50;14.50;14.50;11.75
34176;PMS7003;20450;49.074;9.158;2022-07-29T04:34:17;15.25;14.00;11.50
34176;PMS7003;20450;49.074;9.158;2022-07-29T04:36:45;12.50;12.25;10.75
34176;PMS7003;20450;49.074;9.158;2022-07-29T04:39:12;12.50;12.50;9.25
34176;PMS7003;20450;49.074;9.158;2022-07-29T04:41:46;14.50;13.00;10.00
34176;PMS7003;20450;49.074;9.158;2022-07-29T04:44:18;13.00;13.00;10.75
34176;PMS7003;20450;49.074;9.158;2022-07-29T04:46:46;11.00;11.00;9.25
34176;PMS7003;20450;49.074;9.158;2022-07-29T04:49:12;13.00;13.00;10.25
34176;PMS7003;20450;49.074;9.158;2022-07-29T04:51:40;13.40;12.80;10.20
34176;PMS7003;20450;49.074;9.158;2022-07-29T04:54:07;13.20;13.20;10.00
34176;PMS7003;20450;49.074;9.158;2022-07-29T04:56:33;15.60;13.80;12.20
34176;PMS7003;20450;49.074;9.158;2022-07-29T04:59:00;11.40;11.40;9.60
34176;PMS7003;20450;49.074;9.158;2022-07-29T05:01:29;14.00;14.00;10.80
34176;PMS7003;20450;49.074;9.158;2022-07-29T05:03:56;15.00;15.00;11.20
34176;PMS7003;20450;49.074;9.158;2022-07-29T05:06:26;13.20;13.00;10.60
34176;PMS7003;20450;49.074;9.158;2022-07-29T05:08:53;11.00;11.00;9.40
34176;PMS7003;20450;49.074;9.158;2022-07-29T05:11:20;11.00;11.00;10.00
34176;PMS7003;20450;49.074;9.158;2022-07-29T05:13:52;13.40;13.00;9.80
34176;PMS7003;20450;49.074;9.158;2022-07-29T05:16:19;13.60;13.60;11.60
34176;PMS7003;20450;49.074;9.158;2022-07-29T05:18:47;10.80;10.80;9.60
34176;PMS7003;20450;49.074;9.158;2022-07-29T05:21:14;20.25;19.25;15.75
34176;PMS7003;20450;49.074;9.158;2022-07-29T05:23:44;13.20;13.20;11.00
34176;PMS7003;20450;49.074;9.158;2022-07-29T05:26:16;23.50;23.50;17.25
34176;PMS7003;20450;49.074;9.158;2022-07-29T05:28:43;15.00;15.00;12.00
34176;PMS7003;20450;49.074;9.158;2022-07-29T05:31:09;12.60;11.80;9.40
34176;PMS7003;20450;49.074;9.158;2022-07-29T05:33:37;14.50;13.25;11.25
34176;PMS7003;20450;49.074;9.158;2022-07-29T05:36:05;11.60;11.60;10.20
34176;PMS7003;20450;49.074;9.158;2022-07-29T05:38:33;13.00;13.00;11.75
34176;PMS7003;20450;49.074;9.158;2022-07-29T05:41:02;14.25;13.25;11.25
34176;PMS7003;20450;49.074;9.158;2022-07-29T05:43:30;13.00;13.00;12.25
34176;PMS7003;20450;49.074;9.158;2022-07-29T05:45:58;12.00;12.00;10.60
34176;PMS7003;20450;49.074;9.158;2022-07-29T05:51:35;12.20;12.20;10.40
34176;PMS7003;20450;49.074;9.158;2022-07-29T05:54:02;12.40;10.80;9.60
34176;PMS7003;20450;49.074;9.158;2022-07-29T05:56:35;13.00;13.00;10.00
34176;PMS7003;20450;49.074;9.158;2022-07-29T05:59:03;11.00;10.40;8.20
34176;PMS7003;20450;49.074;9.158;2022-07-29T06:01:43;10.40;10.40;8.60
34176;PMS7003;20450;49.074;9.158;2022-07-29T06:04:10;10.00;10.00;9.00
34176;PMS7003;20450;49.074;9.158;2022-07-29T06:06:39;11.00;10.00;8.00
34176;PMS7003;20450;49.074;9.158;2022-07-29T06:09:06;9.80;9.80;8.00
34176;PMS7003;20450;49.074;9.158;2022-07-29T06:11:38;12.60;10.80;8.00
34176;PMS7003;20450;49.074;9.158;2022-07-29T06:14:05;9.40;9.40;7.80
34176;PMS7003;20450;49.074;9.158;2022-07-29T06:16:31;12.00;12.00;10.60
34176;PMS7003;20450;49.074;9.158;2022-07-29T06:18:59;11.80;11.80;9.00
34176;PMS7003;20450;49.074;9.158;2022-07-29T06:21:26;8.00;6.20;5.00
34176;PMS7003;20450;49.074;9.158;2022-07-29T06:23:54;8.80;8.80;7.40
34176;PMS7003;20450;49.074;9.158;2022-07-29T06:26:21;9.80;9.80;8.80
34176;PMS7003;20450;49.074;9.158;2022-07-29T06:28:58;9.40;9.40;7.60
34176;PMS7003;20450;49.074;9.158;2022-07-29T06:31:25;7.40;7.40;7.00
34176;PMS7003;20450;49.074;9.158;2022-07-29T06:33:52;7.60;7.60;6.80
34176;PMS7003;20450;49.074;9.158;2022-07-29T06:36:20;9.00;9.00;8.00
34176;PMS7003;20450;49.074;9.158;2022-07-29T06:38:50;10.40;9.40;9.00
34176;PMS7003;20450;49.074;9.158;2022-07-29T06:41:20;9.00;9.00;8.60
34176;PMS7003;20450;49.074;9.158;2022-07-29T06:43:47;8.60;8.60;7.00
34176;PMS7003;20450;49.074;9.158;2022-07-29T06:46:20;9.20;8.40;7.00
34176;PMS7003;20450;49.074;9.158;2022-07-29T06:48:48;3.80;3.80;2.40
34176;PMS7003;20450;49.074;9.158;2022-07-29T06:51:17;8.20;7.60;6.20
34176;PMS7003;20450;49.074;9.158;2022-07-29T06:53:49;6.00;6.00;5.00
34176;PMS7003;20450;49.074;9.158;2022-07-29T06:56:30;6.80;6.00;5.20
34176;PMS7003;20450;49.074;9.158;2022-07-29T06:58:57;8.40;8.40;6.60
34176;PMS7003;20450;49.074;9.158;2022-07-29T07:01:24;7.60;7.60;6.00
34176;PMS7003;20450;49.074;9.158;2022-07-29T07:03:51;8.20;8.20;7.00
34176;PMS7003;20450;49.074;9.158;2022-07-29T07:06:18;7.00;7.00;5.40
34176;PMS7003;20450;49.074;9.158;2022-07-29T07:08:46;7.60;7.60;7.00
34176;PMS7003;20450;49.074;9.158;2022-07-29T07:11:13;7.00;7.00;6.00
34176;PMS7003;20450;49.074;9.158;2022-07-29T07:13:41;8.00;7.00;6.40
34176;PMS7003;20450;49.074;9.158;2022-07-29T07:16:08;6.80;6.80;6.80
34176;PMS7003;20450;49.074;9.158;2022-07-29T07:18:35;7.40;7.40;6.80
34176;PMS7003;20450;49.074;9.158;2022-07-29T07:21:02;9.20;8.00;7.60
34176;PMS7003;20450;49.074;9.158;2022-07-29T07:23:29;5.00;5.00;4.00
34176;PMS7003;20450;49.074;9.158;2022-07-29T07:25:56;7.20;7.20;6.80
34176;PMS7003;20450;49.074;9.158;2022-07-29T07:28:23;6.00;6.00;5.40
34176;PMS7003;20450;49.074;9.158;2022-07-29T07:30:52;6.80;6.60;6.40
34176;PMS7003;20450;49.074;9.158;2022-07-29T07:33:19;6.80;6.80;5.80
34176;PMS7003;20450;49.074;9.158;2022-07-29T07:35:46;6.20;6.20;5.20
34176;PMS7003;20450;49.074;9.158;2022-07-29T07:38:13;8.60;8.60;8.00
34176;PMS7003;20450;49.074;9.158;2022-07-29T07:40:40;7.80;7.80;6.60
34176;PMS7003;20450;49.074;9.158;2022-07-29T07:43:07;9.00;7.80;6.40
34176;PMS7003;20450;49.074;9.158;2022-07-29T07:45:34;6.20;5.40;4.00
34176;PMS7003;20450;49.074;9.158;2022-07-29T07:48:03;7.00;7.00;5.00
34176;PMS7003;20450;49.074;9.158;2022-07-29T07:50:31;8.00;7.00;6.00
34176;PMS7003;20450;49.074;9.158;2022-07-29T07:52:58;6.80;6.80;6.40
34176;PMS7003;20450;49.074;9.158;2022-07-29T07:55:29;6.20;6.20;5.60
34176;PMS7003;20450;49.074;9.158;2022-07-29T07:58:16;8.00;8.00;7.00
34176;PMS7003;20450;49.074;9.158;2022-07-29T08:00:43;10.20;9.60;7.20
34176;PMS7003;20450;49.074;9.158;2022-07-29T08:03:11;10.20;9.00;8.00
34176;PMS7003;20450;49.074;9.158;2022-07-29T08:05:43;8.60;8.60;7.00
34176;PMS7003;20450;49.074;9.158;2022-07-29T08:08:10;8.20;8.20;7.60
34176;PMS7003;20450;49.074;9.158;2022-07-29T08:10:40;8.00;8.00;7.00
34176;PMS7003;20450;49.074;9.158;2022-07-29T08:13:08;12.40;10.80;8.60
34176;PMS7003;20450;49.074;9.158;2022-07-29T08:15:36;9.80;8.20;8.00
34176;PMS7003;20450;49.074;9.158;2022-07-29T08:18:03;8.40;8.40;7.60
34176;PMS7003;20450;49.074;9.158;2022-07-29T08:20:36;11.40;11.40;10.20
34176;PMS7003;20450;49.074;9.158;2022-07-29T08:23:06;9.60;9.00;7.00
34176;PMS7003;20450;49.074;9.158;2022-07-29T08:25:37;8.20;8.20;7.00
34176;PMS7003;20450;49.074;9.158;2022-07-29T08:28:05;11.60;9.80;8.60
34176;PMS7003;20450;49.074;9.158;2022-07-29T08:30:32;8.20;8.20;7.00
34176;PMS7003;20450;49.074;9.158;2022-07-29T08:33:00;8.40;8.40;8.00
34176;PMS7003;20450;49.074;9.158;2022-07-29T08:35:27;8.20;8.20;7.40
34176;PMS7003;20450;49.074;9.158;2022-07-29T08:38:02;7.20;7.20;6.20
34176;PMS7003;20450;49.074;9.158;2022-07-29T08:40:29;8.80;8.80;7.00
34176;PMS7003;20450;49.074;9.158;2022-07-29T08:42:58;6.60;6.60;6.00
34176;PMS7003;20450;49.074;9.158;2022-07-29T08:45:35;10.20;10.00;9.00
34176;PMS7003;20450;49.074;9.158;2022-07-29T08:48:14;12.40;11.60;9.20
34176;PMS7003;20450;49.074;9.158;2022-07-29T08:50:43;7.20;7.20;6.40
34176;PMS7003;20450;49.074;9.158;2022-07-29T08:53:13;10.00;9.00;7.00
34176;PMS7003;20450;49.074;9.158;2022-07-29T08:55:43;11.00;11.00;10.00
34176;PMS7003;20450;49.074;9.158;2022-07-29T08:58:12;9.20;9.20;8.00
34176;PMS7003;20450;49.074;9.158;2022-07-29T09:00:41;11.40;11.40;10.00
34176;PMS7003;20450;49.074;9.158;2022-07-29T09:03:12;9.20;9.20;7.60
34176;PMS7003;20450;49.074;9.158;2022-07-29T09:05:44;9.80;9.80;9.00
34176;PMS7003;20450;49.074;9.158;2022-07-29T09:08:16;8.60;8.60;7.60
34176;PMS7003;20450;49.074;9.158;2022-07-29T09:10:44;8.60;8.60;7.80
34176;PMS7003;20450;49.074;9.158;2022-07-29T09:13:11;10.00;10.00;9.00
34176;PMS7003;20450;49.074;9.158;2022-07-29T09:15:38;9.60;9.60;8.20
34176;PMS7003;20450;49.074;9.158;2022-07-29T09:18:05;10.80;10.00;8.20
34176;PMS7003;20450;49.074;9.158;2022-07-29T09:20:32;10.20;9.20;7.80
34176;PMS7003;20450;49.074;9.158;2022-07-29T09:23:07;10.80;10.40;9.00
34176;PMS7003;20450;49.074;9.158;2022-07-29T09:25:37;7.40;7.40;7.00
34176;PMS7003;20450;49.074;9.158;2022-07-29T09:28:06;10.20;10.20;8.60
34176;PMS7003;20450;49.074;9.158;2022-07-29T09:30:34;7.60;7.60;6.60
34176;PMS7003;20450;49.074;9.158;2022-07-29T09:33:02;10.80;10.80;9.80
34176;PMS7003;20450;49.074;9.158;2022-07-29T09:35:30;10.20;10.20;8.60
34176;PMS7003;20450;49.074;9.158;2022-07-29T09:37:57;11.60;11.60;8.80
34176;PMS7003;20450;49.074;9.158;2022-07-29T09:40:37;10.00;9.40;7.00
34176;PMS7003;20450;49.074;9.158;2022-07-29T09:43:09;10.80;10.80;10.20
34176;PMS7003;20450;49.074;9.158;2022-07-29T09:45:37;9.20;9.20;8.40
34176;PMS7003;20450;49.074;9.158;2022-07-29T09:48:16;10.60;10.40;8.60
34176;PMS7003;20450;49.074;9.158;2022-07-29T09:50:46;9.00;9.00;8.40
34176;PMS7003;20450;49.074;9.158;2022-07-29T09:53:21;10.40;9.60;8.80
34176;PMS7003;20450;49.074;9.158;2022-07-29T09:55:59;12.00;12.00;10.60
34176;PMS7003;20450;49.074;9.158;2022-07-29T09:58:28;10.20;10.20;8.00
34176;PMS7003;20450;49.074;9.158;2022-07-29T10:00:55;11.20;11.20;10.00
34176;PMS7003;20450;49.074;9.158;2022-07-29T10:03:24;12.00;12.00;10.00
34176;PMS7003;20450;49.074;9.158;2022-07-29T10:06:04;12.20;11.80;10.60
34176;PMS7003;20450;49.074;9.158;2022-07-29T10:08:36;14.00;13.80;11.60
34176;PMS7003;20450;49.074;9.158;2022-07-29T10:11:10;12.60;12.60;11.40
34176;PMS7003;20450;49.074;9.158;2022-07-29T10:13:40;11.60;10.80;10.00
34176;PMS7003;20450;49.074;9.158;2022-07-29T10:16:09;10.60;10.20;9.20
34176;PMS7003;20450;49.074;9.158;2022-07-29T10:18:40;13.20;11.20;9.80
34176;PMS7003;20450;49.074;9.158;2022-07-29T10:21:09;11.20;11.20;9.00
34176;PMS7003;20450;49.074;9.158;2022-07-29T10:23:47;10.20;10.20;9.00
34176;PMS7003;20450;49.074;9.158;2022-07-29T10:26:17;11.00;9.60;8.60
34176;PMS7003;20450;49.074;9.158;2022-07-29T10:28:45;9.40;9.40;8.00
34176;PMS7003;20450;49.074;9.158;2022-07-29T10:31:13;9.00;9.00;8.20
34176;PMS7003;20450;49.074;9.158;2022-07-29T10:33:55;11.40;8.60;7.20
34176;PMS7003;20450;49.074;9.158;2022-07-29T10:36:42;7.60;7.60;7.60
34176;PMS7003;20450;49.074;9.158;2022-07-29T10:39:30;12.00;11.20;9.20
34176;PMS7003;20450;49.074;9.158;2022-07-29T10:42:18;11.40;9.40;8.80
34176;PMS7003;20450;49.074;9.158;2022-07-29T10:45:00;13.00;10.40;9.00
34176;PMS7003;20450;49.074;9.158;2022-07-29T10:47:30;11.00;11.00;9.40
34176;PMS7003;20450;49.074;9.158;2022-07-29T10:50:04;10.00;10.00;8.40
34176;PMS7003;20450;49.074;9.158;2022-07-29T10:52:52;9.60;9.60;8.60
34176;PMS7003;20450;49.074;9.158;2022-07-29T10:55:31;11.00;11.00;9.60
34176;PMS7003;20450;49.074;9.158;2022-07-29T10:58:12;8.40;8.20;7.40
34176;PMS7003;20450;49.074;9.158;2022-07-29T11:00:44;8.40;8.40;7.20
34176;PMS7003;20450;49.074;9.158;2022-07-29T11:06:16;11.20;10.60;10.00
34176;PMS7003;20450;49.074;9.158;2022-07-29T11:09:14;10.00;10.00;9.00
34176;PMS7003;20450;49.074;9.158;2022-07-29T11:11:43;9.80;9.80;9.00
34176;PMS7003;20450;49.074;9.158;2022-07-29T11:14:19;11.40;11.40;9.80
34176;PMS7003;20450;49.074;9.158;2022-07-29T11:17:23;10.80;10.80;9.40
34176;PMS7003;20450;49.074;9.158;2022-07-29T11:19:52;10.60;9.20;7.20
34176;PMS7003;20450;49.074;9.158;2022-07-29T11:22:59;11.60;11.60;10.80
34176;PMS7003;20450;49.074;9.158;2022-07-29T11:25:27;9.60;9.40;8.00
34176;PMS7003;20450;49.074;9.158;2022-07-29T11:28:15;10.40;8.80;8.40
34176;PMS7003;20450;49.074;9.158;2022-07-29T11:30:52;10.00;9.80;8.80
34176;PMS7003;20450;49.074;9.158;2022-07-29T11:33:26;12.20;12.20;10.00
34176;PMS7003;20450;49.074;9.158;2022-07-29T11:36:16;9.80;9.80;8.80
34176;PMS7003;20450;49.074;9.158;2022-07-29T11:38:43;12.20;12.20;10.00
34176;PMS7003;20450;49.074;9.158;2022-07-29T11:41:19;9.60;9.00;7.60
34176;PMS7003;20450;49.074;9.158;2022-07-29T11:43:52;9.20;9.20;8.00
34176;PMS7003;20450;49.074;9.158;2022-07-29T11:49:19;12.60;12.40;10.20
34176;PMS7003;20450;49.074;9.158;2022-07-29T11:51:57;8.60;8.60;7.60
34176;PMS7003;20450;49.074;9.158;2022-07-29T11:54:26;11.00;11.00;9.00
34176;PMS7003;20450;49.074;9.158;2022-07-29T11:57:19;10.80;10.00;9.00
34176;PMS7003;20450;49.074;9.158;2022-07-29T11:59:47;8.60;6.60;5.40
34176;PMS7003;20450;49.074;9.158;2022-07-29T12:02:17;10.40;10.20;8.60
34176;PMS7003;20450;49.074;9.158;2022-07-29T12:05:03;8.60;8.60;7.60
34176;PMS7003;20450;49.074;9.158;2022-07-29T12:07:37;11.40;10.40;9.40
34176;PMS7003;20450;49.074;9.158;2022-07-29T12:10:10;8.80;8.80;8.00
34176;PMS7003;20450;49.074;9.158;2022-07-29T12:12:58;10.20;10.20;8.20
34176;PMS7003;20450;49.074;9.158;2022-07-29T12:15:25;10.00;10.00;9.00
34176;PMS7003;20450;49.074;9.158;2022-07-29T12:18:14;10.00;10.00;9.20
34176;PMS7003;20450;49.074;9.158;2022-07-29T12:28:39;11.20;11.20;9.20
34176;PMS7003;20450;49.074;9.158;2022-07-29T12:31:37;9.00;9.00;7.40
34176;PMS7003;20450;49.074;9.158;2022-07-29T12:39:42;11.00;11.00;10.00
34176;PMS7003;20450;49.074;9.158;2022-07-29T12:43:07;9.40;9.40;8.40
34176;PMS7003;20450;49.074;9.158;2022-07-29T12:47:03;12.00;12.00;10.00
34176;PMS7003;20450;49.074;9.158;2022-07-29T12:50:07;7.60;7.60;6.00
34176;PMS7003;20450;49.074;9.158;2022-07-29T12:52:37;10.80;10.80;9.20
34176;PMS7003;20450;49.074;9.158;2022-07-29T12:55:05;9.80;8.00;7.20
34176;PMS7003;20450;49.074;9.158;2022-07-29T12:57:44;8.20;8.20;7.40
34176;PMS7003;20450;49.074;9.158;2022-07-29T13:00:12;9.00;9.00;8.20
34176;PMS7003;20450;49.074;9.158;2022-07-29T13:02:41;9.20;9.20;7.80
34176;PMS7003;20450;49.074;9.158;2022-07-29T13:05:10;9.40;9.40;8.20
34176;PMS7003;20450;49.074;9.158;2022-07-29T13:07:39;9.00;9.00;8.00
34176;PMS7003;20450;49.074;9.158;2022-07-29T13:10:23;8.60;8.60;8.00
34176;PMS7003;20450;49.074;9.158;2022-07-29T13:13:03;9.00;9.00;8.80
34176;PMS7003;20450;49.074;9.158;2022-07-29T13:15:32;9.40;9.40;8.00
34176;PMS7003;20450;49.074;9.158;2022-07-29T13:18:00;10.20;10.20;9.00
34176;PMS7003;20450;49.074;9.158;2022-07-29T13:20:28;9.60;9.60;8.60
34176;PMS7003;20450;49.074;9.158;2022-07-29T13:22:57;10.60;9.60;8.40
34176;PMS7003;20450;49.074;9.158;2022-07-29T13:25:26;8.20;8.20;7.20
34176;PMS7003;20450;49.074;9.158;2022-07-29T13:27:55;9.00;9.00;8.00
34176;PMS7003;20450;49.074;9.158;2022-07-29T13:30:23;10.20;8.80;7.80
34176;PMS7003;20450;49.074;9.158;2022-07-29T13:32:50;10.40;10.40;9.00
34176;PMS7003;20450;49.074;9.158;2022-07-29T13:35:18;8.80;8.80;7.80
34176;PMS7003;20450;49.074;9.158;2022-07-29T13:37:46;10.80;10.00;8.60
34176;PMS7003;20450;49.074;9.158;2022-07-29T13:40:19;11.20;11.20;9.40
34176;PMS7003;20450;49.074;9.158;2022-07-29T13:42:46;8.60;8.60;8.00
34176;PMS7003;20450;49.074;9.158;2022-07-29T13:45:15;7.00;7.00;6.80
34176;PMS7003;20450;49.074;9.158;2022-07-29T13:47:46;8.60;8.60;7.40
34176;PMS7003;20450;49.074;9.158;2022-07-29T13:53:25;5.20;5.20;5.20
34176;PMS7003;20450;49.074;9.158;2022-07-29T13:55:54;9.00;9.00;8.00
34176;PMS7003;20450;49.074;9.158;2022-07-29T13:58:22;12.20;9.60;8.40
34176;PMS7003;20450;49.074;9.158;2022-07-29T14:00:49;12.00;12.00;11.00
34176;PMS7003;20450;49.074;9.158;2022-07-29T14:03:16;9.80;9.80;8.20
34176;PMS7003;20450;49.074;9.158;2022-07-29T14:05:43;11.40;11.40;9.20
34176;PMS7003;20450;49.074;9.158;2022-07-29T14:08:11;11.00;11.00;9.20
34176;PMS7003;20450;49.074;9.158;2022-07-29T14:10:38;12.20;11.60;10.00
34176;PMS7003;20450;49.074;9.158;2022-07-29T14:13:06;8.00;8.00;6.40
34176;PMS7003;20450;49.074;9.158;2022-07-29T14:15:51;9.80;9.40;9.00
34176;PMS7003;20450;49.074;9.158;2022-07-29T14:18:18;8.80;7.60;6.00
34176;PMS7003;20450;49.074;9.158;2022-07-29T14:20:45;9.80;9.40;8.00
34176;PMS7003;20450;49.074;9.158;2022-07-29T14:23:12;12.80;10.20;8.00
34176;PMS7003;20450;49.074;9.158;2022-07-29T14:25:42;10.60;10.60;8.60
34176;PMS7003;20450;49.074;9.158;2022-07-29T14:28:11;9.20;9.20;8.00
34176;PMS7003;20450;49.074;9.158;2022-07-29T14:30:40;10.80;10.80;9.60
34176;PMS7003;20450;49.074;9.158;2022-07-29T14:33:07;9.20;9.20;8.00
34176;PMS7003;20450;49.074;9.158;2022-07-29T14:35:34;9.60;9.60;8.80
34176;PMS7003;20450;49.074;9.158;2022-07-29T14:38:01;8.60;7.40;7.20
34176;PMS7003;20450;49.074;9.158;2022-07-29T14:40:28;10.20;10.20;9.20
34176;PMS7003;20450;49.074;9.158;2022-07-29T14:42:55;10.80;10.80;9.20
34176;PMS7003;20450;49.074;9.158;2022-07-29T14:45:23;8.80;8.40;7.60
34176;PMS7003;20450;49.074;9.158;2022-07-29T14:47:50;9.00;9.00;8.00
34176;PMS7003;20450;49.074;9.158;2022-07-29T14:50:23;11.20;8.40;7.80
34176;PMS7003;20450;49.074;9.158;2022-07-29T14:52:58;13.40;10.40;7.80